createdAt,value
2022-10-10T00:01:22.920Z,40.15615
2022-10-10T00:06:27.154Z,39.90862
2022-10-10T00:11:30.900Z,41.44402
2022-10-10T00:16:32.705Z,41.58119
2022-10-10T00:21:34.298Z,42.12643
2022-10-10T00:26:35.955Z,43.028
2022-10-10T00:31:38.122Z,43.88206
2022-10-10T00:36:39.930Z,45.66516
2022-10-10T00:41:41.829Z,48.5069
2022-10-10T00:46:43.797Z,47.94196
2022-10-10T00:51:45.445Z,46.39456
2022-10-10T00:56:47.197Z,47.0519
2022-10-10T01:01:49.141Z,48.53242
2022-10-10T01:06:50.586Z,49.44928
2022-10-10T01:11:52.090Z,49.31225
2022-10-10T01:16:54.054Z,47.79576
2022-10-10T01:21:55.664Z,47.29088
2022-10-10T01:26:57.132Z,46.48753
2022-10-10T01:31:58.829Z,46.35128
2022-10-10T01:37:00.454Z,45.94115
2022-10-10T01:42:02.327Z,46.75956
2022-10-10T01:47:04.089Z,49.27423
2022-10-10T01:52:05.977Z,50.48397
2022-10-10T01:57:07.722Z,51.69899
2022-10-10T02:02:09.760Z,53.17409
2022-10-10T02:07:11.693Z,54.54197
2022-10-10T02:12:13.712Z,56.82077
2022-10-10T02:17:15.984Z,57.57044
2022-10-10T02:22:18.103Z,61.39864
2022-10-10T02:27:19.885Z,61.92779
2022-10-10T02:32:21.733Z,59.28949
2022-10-10T02:37:23.423Z,60.13303
2022-10-10T02:42:24.944Z,65.46453
2022-10-10T02:47:27.637Z,67.54318
2022-10-10T02:52:29.524Z,67.71087
2022-10-10T02:57:31.202Z,65.34888
2022-10-10T03:02:33.228Z,68.90691
2022-10-10T03:07:34.978Z,67.82811
2022-10-10T03:12:37.335Z,66.43879
2022-10-10T03:17:39.759Z,67.21443
2022-10-10T03:22:41.681Z,69.10842
2022-10-10T03:27:43.485Z,68.64117
2022-10-10T03:32:45.763Z,69.59389
2022-10-10T03:37:47.881Z,70.57206
2022-10-10T03:42:50.202Z,68.4479
2022-10-10T03:47:52.728Z,69.23882
2022-10-10T03:52:54.725Z,68.44466
2022-10-10T03:57:56.796Z,66.17154
2022-10-10T04:02:58.856Z,62.22205
2022-10-10T04:08:00.753Z,59.67395
2022-10-10T04:13:02.216Z,60.08736
2022-10-10T04:18:04.396Z,56.99843
2022-10-10T04:23:06.429Z,58.31157
2022-10-10T04:28:08.252Z,57.12551
2022-10-10T04:33:10.143Z,57.04831
2022-10-10T04:38:12.014Z,55.28512
2022-10-10T04:43:14.193Z,54.9093
2022-10-10T04:48:16.466Z,54.75166
2022-10-10T04:53:18.515Z,53.2463
2022-10-10T04:58:20.458Z,52.05888
2022-10-10T05:03:21.988Z,51.06463
2022-10-10T05:08:23.462Z,51.46253
2022-10-10T05:13:25.044Z,50.79147
2022-10-10T05:18:27.645Z,48.73271
2022-10-10T05:23:29.484Z,47.80818
2022-10-10T05:28:31.153Z,46.78414
2022-10-10T05:33:32.953Z,48.64279
2022-10-10T05:38:35.041Z,48.1079
2022-10-10T05:43:36.707Z,47.22775
2022-10-10T05:48:39.578Z,46.62237
2022-10-10T05:53:41.385Z,46.08326
2022-10-10T05:58:43.317Z,46.85764
2022-10-10T06:03:44.990Z,45.86412
2022-10-10T06:08:46.778Z,44.16711
2022-10-10T06:13:48.786Z,43.87718
2022-10-10T06:18:51.504Z,43.29064
2022-10-10T06:23:53.236Z,43.54547
2022-10-10T06:28:54.988Z,44.41045
2022-10-10T06:33:56.991Z,44.26266
2022-10-10T06:38:58.688Z,41.65357
2022-10-10T06:44:00.592Z,41.4911
2022-10-10T06:49:02.597Z,42.39933
2022-10-10T06:54:04.465Z,43.21667
2022-10-10T06:59:06.443Z,40.10162
2022-10-10T07:04:08.523Z,39.97996
2022-10-10T07:09:10.563Z,36.87156
2022-10-10T07:14:12.370Z,35.45496
2022-10-10T07:19:14.773Z,34.94904
2022-10-10T07:24:16.782Z,35.05418
2022-10-10T07:29:18.581Z,32.85075
2022-10-10T07:34:20.405Z,33.20005
2022-10-10T07:39:22.221Z,31.54773
2022-10-10T07:44:23.841Z,31.42931
2022-10-10T07:49:25.917Z,31.24421
2022-10-10T07:54:27.469Z,29.95146
2022-10-10T07:59:29.119Z,29.79028
2022-10-10T08:04:30.646Z,25.85513
2022-10-10T08:09:32.359Z,27.14938
2022-10-10T08:14:33.988Z,26.58985
2022-10-10T08:19:35.990Z,27.57873
2022-10-10T08:24:37.867Z,25.57638
2022-10-10T08:29:39.407Z,25.43376
2022-10-10T08:34:41.380Z,24.43562
2022-10-10T08:39:43.104Z,24.54825
2022-10-10T08:44:44.658Z,24.82487
2022-10-10T08:49:46.320Z,23.39238
2022-10-10T08:54:48.163Z,22.42722
2022-10-10T08:59:50.202Z,22.57953
2022-10-10T09:04:52.016Z,22.26477
2022-10-10T09:09:53.567Z,21.98497
2022-10-10T09:14:59.792Z,21.65503
2022-10-10T09:20:04.226Z,20.9502
2022-10-10T09:25:06.028Z,19.64234
2022-10-10T09:30:08.091Z,19.22265
2022-10-10T09:35:10.198Z,19.72525
2022-10-10T09:40:12.222Z,19.74374
2022-10-10T09:45:14.024Z,19.38117
2022-10-10T09:50:16.442Z,18.15959
2022-10-10T09:55:18.256Z,18.0334
2022-10-10T10:00:20.213Z,17.69354
2022-10-10T10:05:22.130Z,17.42066
2022-10-10T10:10:23.871Z,17.61607
2022-10-10T10:15:25.701Z,17.18582
2022-10-10T10:20:28.465Z,17.5238
2022-10-10T10:25:31.546Z,15.76149
2022-10-10T10:30:33.945Z,15.28648
2022-10-10T10:35:36.049Z,15.58371
2022-10-10T10:40:38.017Z,15.7128
2022-10-10T10:45:39.826Z,14.80597
2022-10-10T10:50:42.925Z,15.05773
2022-10-10T10:55:44.752Z,15.67176
2022-10-10T11:01:23.000Z,14.90735
2022-10-10T11:06:30.765Z,14.59325
2022-10-10T11:11:32.638Z,14.66708
2022-10-10T11:16:47.883Z,14.50421
2022-10-10T11:21:51.727Z,14.84388
2022-10-10T11:26:53.505Z,14.87038
2022-10-10T11:31:55.646Z,14.63637
2022-10-10T11:36:57.475Z,14.76824
2022-10-10T11:41:59.257Z,15.22007
2022-10-10T11:47:01.364Z,15.28027
2022-10-10T11:52:31.942Z,14.08666
2022-10-10T11:57:34.878Z,15.19585
2022-10-10T12:02:36.571Z,14.80662
2022-10-10T12:07:38.513Z,14.36154
2022-10-10T12:12:40.210Z,14.25879
2022-10-10T12:17:41.744Z,14.56211
2022-10-10T12:22:44.000Z,14.29946
2022-10-10T12:27:45.824Z,13.7689
2022-10-10T12:32:47.633Z,14.35443
2022-10-10T12:37:49.216Z,14.16361
2022-10-10T12:42:51.015Z,14.46855
2022-10-10T12:48:05.144Z,14.07698
2022-10-10T12:53:08.765Z,13.4261
2022-10-10T12:58:20.861Z,14.43722
2022-10-10T13:03:27.911Z,13.98312
2022-10-10T13:08:29.543Z,14.22967
2022-10-10T13:13:31.246Z,14.07598
2022-10-10T13:18:32.697Z,13.92801
2022-10-10T13:23:34.453Z,14.72675
2022-10-10T13:28:36.640Z,15.27663
2022-10-10T13:33:38.477Z,14.51063
2022-10-10T13:38:40.166Z,14.51526
2022-10-10T13:43:41.880Z,15.15836
2022-10-10T13:48:43.821Z,14.85087
2022-10-10T13:53:45.866Z,14.34767
2022-10-10T13:58:47.620Z,14.38599
2022-10-10T14:03:49.648Z,15.63729
2022-10-10T14:08:51.760Z,14.9664
2022-10-10T14:13:53.775Z,14.89564
2022-10-10T14:18:55.763Z,15.09291
2022-10-10T14:23:57.951Z,14.80235
2022-10-10T14:28:59.823Z,15.70896
2022-10-10T14:34:01.587Z,15.43568
2022-10-10T14:39:03.643Z,15.83013
2022-10-10T14:44:05.388Z,16.07011
2022-10-10T14:49:10.996Z,16.05438
2022-10-10T14:54:15.183Z,16.97447
2022-10-10T14:59:17.021Z,16.90058
2022-10-10T15:04:19.024Z,16.51473
2022-10-10T15:09:40.084Z,16.93438
2022-10-10T15:14:42.955Z,16.78407
2022-10-10T15:19:44.406Z,16.40837
2022-10-10T15:24:46.531Z,16.56974
2022-10-10T15:29:48.663Z,16.89366
2022-10-10T15:34:50.643Z,17.78145
2022-10-10T15:39:52.500Z,17.30931
2022-10-10T15:44:54.112Z,17.61858
2022-10-10T15:49:56.048Z,18.11284
2022-10-10T15:54:58.227Z,18.21356
2022-10-10T15:59:59.747Z,18.6211
2022-10-10T16:05:01.246Z,18.97614
2022-10-10T16:10:02.906Z,19.97502
2022-10-10T16:15:06.953Z,20.10691
2022-10-10T16:20:09.378Z,20.71293
2022-10-10T16:25:22.956Z,20.78227
2022-10-10T16:30:24.846Z,21.29837
2022-10-10T16:35:26.531Z,22.08667
2022-10-10T16:40:28.553Z,22.28743
2022-10-10T16:45:30.282Z,22.01451
2022-10-10T16:50:32.106Z,22.9481
2022-10-10T16:55:33.893Z,22.70188
2022-10-10T17:00:35.493Z,21.86619
2022-10-10T17:05:37.199Z,23.55211
2022-10-10T17:10:39.016Z,23.55788
2022-10-10T17:15:40.808Z,23.9731
2022-10-10T17:20:42.297Z,23.49493
2022-10-10T17:25:44.455Z,23.18765
2022-10-10T17:30:46.174Z,22.53977
2022-10-10T17:35:48.409Z,23.69948
2022-10-10T17:40:50.266Z,24.96535
2022-10-10T17:45:52.244Z,25.09125
2022-10-10T17:50:54.162Z,25.32561
2022-10-10T17:55:56.316Z,26.02485
2022-10-10T18:00:58.154Z,26.35556
2022-10-10T18:06:00.806Z,35.26263
2022-10-10T18:11:03.353Z,43.2674
2022-10-10T18:16:07.293Z,46.37684
2022-10-10T18:21:09.472Z,47.28939
2022-10-10T18:26:11.344Z,50.58734
2022-10-10T18:31:13.992Z,51.40717
2022-10-10T18:36:16.487Z,51.96975
2022-10-10T18:41:18.362Z,51.6393
2022-10-10T18:46:20.362Z,53.13308
2022-10-10T18:51:22.566Z,53.81116
2022-10-10T18:56:25.083Z,53.29527
2022-10-10T19:01:26.561Z,52.49483
2022-10-10T19:06:27.877Z,50.5257
2022-10-10T19:11:29.742Z,51.1014
2022-10-10T19:16:31.089Z,49.6214
2022-10-10T19:21:32.595Z,48.60069
2022-10-10T19:26:34.446Z,47.19902
2022-10-10T19:31:36.128Z,45.72984
2022-10-10T19:36:39.972Z,44.93954
2022-10-10T19:41:43.620Z,42.66248
2022-10-10T19:46:45.311Z,40.01532
2022-10-10T19:51:47.415Z,38.127
2022-10-10T19:56:49.177Z,35.80045
2022-10-10T20:01:50.959Z,33.67674
2022-10-10T20:06:52.658Z,35.18453
2022-10-10T20:11:54.427Z,38.81123
2022-10-10T20:16:55.988Z,40.60601
2022-10-10T20:21:57.901Z,42.85513
2022-10-10T20:26:59.631Z,44.66599
2022-10-10T20:32:01.135Z,46.38053
2022-10-10T20:37:02.638Z,48.32675
2022-10-10T20:42:04.794Z,51.61906
2022-10-10T20:47:06.572Z,51.1804
2022-10-10T20:52:08.367Z,53.51722
2022-10-10T20:57:10.673Z,53.65854
2022-10-10T21:02:15.928Z,52.26089
2022-10-10T21:07:21.443Z,53.7044
2022-10-10T21:12:23.482Z,55.42768
2022-10-10T21:17:25.681Z,55.49832
2022-10-10T21:22:27.320Z,55.75954
2022-10-10T21:27:29.270Z,57.43985
2022-10-10T21:32:31.063Z,58.10856
2022-10-10T21:37:32.496Z,59.20581
2022-10-10T21:42:34.635Z,56.62617
2022-10-10T21:47:36.400Z,57.04889
2022-10-10T21:52:38.403Z,58.28735
2022-10-10T21:57:40.453Z,57.46175
2022-10-10T22:02:42.236Z,58.33196
2022-10-10T22:07:44.211Z,59.14268
2022-10-10T22:12:46.240Z,60.20725
2022-10-10T22:17:48.288Z,59.11783
2022-10-10T22:22:50.307Z,59.69443
2022-10-10T22:27:57.018Z,60.61109
2022-10-10T22:32:59.132Z,59.66691
2022-10-10T22:38:00.998Z,58.08541
2022-10-10T22:43:03.227Z,59.42031
2022-10-10T22:48:05.278Z,57.46177
2022-10-10T22:53:07.291Z,57.23527
2022-10-10T22:58:09.516Z,58.80585
2022-10-10T23:03:11.622Z,58.31869
2022-10-10T23:08:13.443Z,57.28975
2022-10-10T23:13:15.521Z,57.90818
2022-10-10T23:18:17.320Z,57.42322
2022-10-10T23:23:19.323Z,54.57509
2022-10-10T23:28:21.570Z,56.67704
2022-10-10T23:33:23.428Z,56.54017
2022-10-10T23:38:25.647Z,58.16348
2022-10-10T23:43:27.273Z,57.36452
2022-10-10T23:48:29.108Z,58.71364
2022-10-10T23:53:30.730Z,58.1316
2022-10-10T23:58:32.716Z,58.54845
